Athina V — 9H8661 — position and weather

sailwx.info

Track history (hours):
 
Tides and Currents Weather Stations Pressure Air Temp Water Temp Dewpoint Dewpoint Depression Visibility Wind Speed Wind Dir Waves Ship Positions

Athina V

Last reported at 2015-Jul-16 18:29 UTC. Time now 2015-Jul-30 04:03 UTC.
Position N 37°46' E 023°13'.
Warning: this ship's position is 13 days out of date.

Length 19 m; draft 3 m.

Type: Sailing vessel. MMSI: 256655000.

Date/timePositionNaut miles runAvg speedWind from/ knotsBaromVisibWave heightAir tempDewpointWater temp
2015-Jul-16 18:29N 37°46' E 023°13'6 5.9
2015-Jul-16 17:23N 37°41' E 023°17'12 6.8
2015-Jul-16 15:33N 37°43' E 023°33'1 1.4
2015-Jul-16 14:33N 37°45' E 023°32'2 1.8
2015-Jul-16 13:33N 37°43' E 023°32'5 4.0
2015-Jul-16 12:21N 37°39' E 023°29'4 5.1
2015-Jul-16 11:33N 37°35' E 023°27'8 0.5
2015-Jul-15 19:10N 37°28' E 023°31'  
2015-Jul-09 07:33N 37°27' E 023°31'6 0.5
2015-Jul-08 18:28N 37°31' E 023°25'6 6.6
2015-Jul-08 17:33N 37°37' E 023°28'6 6.4
2015-Jul-08 16:33N 37°42' E 023°32'5 4.9
2015-Jul-08 15:33N 37°47' E 023°34'5 4.7
2015-Jul-08 14:33N 37°52' E 023°34'6 5.8
2015-Jul-08 13:33N 37°57' E 023°35'  
Track history (hours):
 
Tides and Currents Weather Stations Pressure Air Temp Water Temp Dewpoint Dewpoint Depression Visibility Wind Speed Wind Dir Waves Ship Positions

Athina V

Last reported at 2015-Jul-16 18:29 UTC. Time now 2015-Jul-30 04:03 UTC.
Position N 37°46' E 023°13'.
Warning: this ship's position is 13 days out of date.

Length 19 m; draft 3 m.

Type: Sailing vessel. MMSI: 256655000.

Date/timePositionNaut miles runAvg speedWind from/ knotsBaromVisibWave heightAir tempDewpointWater temp
2015-Jul-16 18:29N 37°46' E 023°13'6 5.9
2015-Jul-16 17:23N 37°41' E 023°17'12 6.8
2015-Jul-16 15:33N 37°43' E 023°33'1 1.4
2015-Jul-16 14:33N 37°45' E 023°32'2 1.8
2015-Jul-16 13:33N 37°43' E 023°32'5 4.0
2015-Jul-16 12:21N 37°39' E 023°29'4 5.1
2015-Jul-16 11:33N 37°35' E 023°27'8 0.5
2015-Jul-15 19:10N 37°28' E 023°31'  
2015-Jul-09 07:33N 37°27' E 023°31'6 0.5
2015-Jul-08 18:28N 37°31' E 023°25'6 6.6
2015-Jul-08 17:33N 37°37' E 023°28'6 6.4
2015-Jul-08 16:33N 37°42' E 023°32'5 4.9
2015-Jul-08 15:33N 37°47' E 023°34'5 4.7
2015-Jul-08 14:33N 37°52' E 023°34'6 5.8
2015-Jul-08 13:33N 37°57' E 023°35'  

Dump ship's entire track history